createdAt,value
2023-09-30T00:02:22.614Z,100.00
2023-09-30T00:04:50.812Z,100.00
2023-09-30T00:07:17.620Z,100.00
2023-09-30T00:09:44.478Z,100.00
2023-09-30T00:12:11.165Z,100.00
2023-09-30T00:14:38.000Z,100.00
2023-09-30T00:17:04.865Z,100.00
2023-09-30T00:19:31.794Z,100.00
2023-09-30T00:21:59.903Z,100.00
2023-09-30T00:24:26.799Z,100.00
2023-09-30T00:26:53.475Z,100.00
2023-09-30T00:29:20.175Z,100.00
2023-09-30T00:31:46.833Z,100.00
2023-09-30T00:34:13.582Z,100.00
2023-09-30T00:36:40.572Z,100.00
2023-09-30T00:39:09.491Z,100.00
2023-09-30T00:41:36.438Z,100.00
2023-09-30T00:44:03.238Z,100.00
2023-09-30T00:46:31.877Z,100.00
2023-09-30T00:49:00.270Z,100.00
2023-09-30T00:51:27.526Z,100.00
2023-09-30T00:53:59.638Z,100.00
2023-09-30T00:56:30.406Z,100.00
2023-09-30T00:58:57.349Z,100.00
2023-09-30T01:01:24.424Z,100.00
2023-09-30T01:03:51.501Z,100.00
2023-09-30T01:06:18.343Z,100.00
2023-09-30T01:08:45.685Z,100.00
2023-09-30T01:11:13.520Z,100.00
2023-09-30T01:13:41.617Z,100.00
2023-09-30T01:16:09.992Z,100.00
2023-09-30T01:18:37.552Z,100.00
2023-09-30T01:21:05.829Z,100.00
2023-09-30T01:23:34.508Z,100.00
2023-09-30T01:26:02.799Z,100.00
2023-09-30T01:28:29.479Z,100.00
2023-09-30T01:30:56.212Z,100.00
2023-09-30T01:33:22.950Z,100.00
2023-09-30T01:35:49.884Z,100.00
2023-09-30T01:38:16.633Z,100.00
2023-09-30T01:40:44.813Z,100.00
2023-09-30T01:43:11.505Z,100.00
2023-09-30T01:45:38.301Z,100.00
2023-09-30T01:48:05.503Z,100.00
2023-09-30T01:50:32.272Z,100.00
2023-09-30T01:53:01.082Z,100.00
2023-09-30T01:55:27.746Z,100.00
2023-09-30T01:57:55.801Z,100.00
2023-09-30T02:00:22.687Z,100.00
2023-09-30T02:02:49.501Z,100.00
2023-09-30T02:05:16.319Z,100.00
2023-09-30T02:07:43.113Z,100.00
2023-09-30T02:10:10.434Z,100.00
2023-09-30T02:12:37.245Z,100.00
2023-09-30T02:15:06.589Z,100.00
2023-09-30T02:17:33.425Z,100.00
2023-09-30T02:20:00.190Z,100.00
2023-09-30T02:22:26.874Z,100.00
2023-09-30T02:24:53.935Z,100.00
2023-09-30T02:27:20.693Z,100.00
2023-09-30T02:29:47.505Z,100.00
2023-09-30T02:32:15.580Z,100.00
2023-09-30T02:34:42.251Z,100.00
2023-09-30T02:37:09.108Z,100.00
2023-09-30T02:39:35.798Z,100.00
2023-09-30T02:42:03.517Z,100.00
2023-09-30T02:44:30.284Z,100.00
2023-09-30T02:46:56.950Z,100.00
2023-09-30T02:49:25.014Z,100.00
2023-09-30T02:51:51.687Z,100.00
2023-09-30T02:54:18.604Z,100.00
2023-09-30T02:56:45.334Z,100.00
2023-09-30T02:59:11.992Z,100.00
2023-09-30T03:01:38.860Z,100.00
2023-09-30T03:04:07.411Z,100.00
2023-09-30T03:06:37.149Z,100.00
2023-09-30T03:09:04.098Z,100.00
2023-09-30T03:11:30.835Z,100.00
2023-09-30T03:13:57.730Z,100.00
2023-09-30T03:16:25.139Z,100.00
2023-09-30T03:18:52.180Z,100.00
2023-09-30T03:21:18.926Z,100.00
2023-09-30T03:23:47.068Z,100.00
2023-09-30T03:26:13.729Z,100.00
2023-09-30T03:28:40.814Z,100.00
2023-09-30T03:31:07.649Z,100.00
2023-09-30T03:33:35.253Z,100.00
2023-09-30T03:36:02.194Z,100.00
2023-09-30T03:38:29.170Z,100.00
2023-09-30T03:40:57.206Z,100.00
2023-09-30T03:43:24.018Z,100.00
2023-09-30T03:45:50.738Z,100.00
2023-09-30T03:48:17.643Z,100.00
2023-09-30T03:50:44.541Z,100.00
2023-09-30T03:53:11.387Z,100.00
2023-09-30T03:55:38.601Z,100.00
2023-09-30T03:58:06.656Z,100.00
2023-09-30T04:00:33.518Z,100.00
2023-09-30T04:03:00.468Z,100.00
2023-09-30T04:05:27.413Z,100.00
2023-09-30T04:07:54.143Z,100.00
2023-09-30T04:10:22.130Z,100.00
2023-09-30T04:12:49.004Z,100.00
2023-09-30T04:15:17.200Z,100.00
2023-09-30T04:17:43.889Z,100.00
2023-09-30T04:20:13.887Z,100.00
2023-09-30T04:22:40.601Z,100.00
2023-09-30T04:25:08.444Z,100.00
2023-09-30T04:27:35.220Z,100.00
2023-09-30T04:30:01.976Z,100.00
2023-09-30T04:32:30.478Z,100.00
2023-09-30T04:34:57.306Z,100.00
2023-09-30T04:37:24.022Z,100.00
2023-09-30T04:39:50.867Z,100.00
2023-09-30T04:42:17.817Z,100.00
2023-09-30T04:44:44.944Z,100.00
2023-09-30T04:47:11.826Z,100.00
2023-09-30T04:49:40.103Z,100.00
2023-09-30T04:52:06.812Z,100.00
2023-09-30T04:54:33.655Z,100.00
2023-09-30T04:57:00.397Z,100.00
2023-09-30T04:59:27.138Z,100.00
2023-09-30T05:01:53.912Z,100.00
2023-09-30T05:04:20.695Z,100.00
2023-09-30T05:06:49.004Z,100.00
2023-09-30T05:09:15.772Z,100.00
2023-09-30T05:11:42.511Z,100.00
2023-09-30T05:14:09.246Z,100.00
2023-09-30T05:16:36.731Z,100.00
2023-09-30T05:19:03.599Z,100.00
2023-09-30T05:21:30.471Z,100.00
2023-09-30T05:23:58.600Z,100.00
2023-09-30T05:26:25.553Z,100.00
2023-09-30T05:28:52.226Z,100.00
2023-09-30T05:31:19.041Z,100.00
2023-09-30T05:33:45.932Z,100.00
2023-09-30T05:36:12.582Z,100.00
2023-09-30T05:38:39.321Z,100.00
2023-09-30T05:41:07.324Z,100.00
2023-09-30T05:43:34.104Z,100.00
2023-09-30T05:46:02.453Z,100.00
2023-09-30T05:48:32.450Z,100.00
2023-09-30T05:50:59.271Z,100.00
2023-09-30T05:53:26.078Z,100.00
2023-09-30T05:55:52.927Z,100.00
2023-09-30T05:58:21.033Z,100.00
2023-09-30T06:00:48.045Z,100.00
2023-09-30T06:03:14.866Z,100.00
2023-09-30T06:05:42.450Z,100.00
2023-09-30T06:08:10.621Z,100.00
2023-09-30T06:10:37.429Z,100.00
2023-09-30T06:13:04.482Z,100.00
2023-09-30T06:15:32.583Z,100.00
2023-09-30T06:17:59.472Z,100.00
2023-09-30T06:20:27.044Z,100.00
2023-09-30T06:22:55.649Z,100.00
2023-09-30T06:25:24.831Z,100.00
2023-09-30T06:27:51.766Z,100.00
2023-09-30T06:30:19.316Z,100.00
2023-09-30T06:32:47.615Z,100.00
2023-09-30T06:35:14.826Z,100.00
2023-09-30T06:37:41.837Z,100.00
2023-09-30T06:40:14.130Z,100.00
2023-09-30T06:42:41.408Z,100.00
2023-09-30T06:45:09.357Z,100.00
2023-09-30T06:47:36.741Z,100.00
2023-09-30T06:50:09.757Z,100.00
2023-09-30T06:52:38.581Z,100.00
2023-09-30T06:55:06.621Z,100.00
2023-09-30T06:57:34.401Z,100.00
2023-09-30T07:00:01.127Z,100.00
2023-09-30T07:02:27.902Z,100.00
2023-09-30T07:04:54.649Z,100.00
2023-09-30T07:07:22.715Z,100.00
2023-09-30T07:09:49.485Z,100.00
2023-09-30T07:12:16.438Z,100.00
2023-09-30T07:14:43.130Z,100.00
2023-09-30T07:17:09.829Z,100.00
2023-09-30T07:19:37.547Z,100.00
2023-09-30T07:22:05.027Z,100.00
2023-09-30T07:24:33.466Z,100.00
2023-09-30T07:27:00.853Z,100.00
2023-09-30T07:29:29.713Z,100.00
2023-09-30T07:31:56.489Z,100.00
2023-09-30T07:34:23.343Z,100.00
2023-09-30T07:36:50.148Z,100.00
2023-09-30T07:39:16.891Z,100.00
2023-09-30T07:41:45.091Z,100.00
2023-09-30T07:44:12.061Z,100.00
2023-09-30T07:46:38.790Z,100.00
2023-09-30T07:49:05.589Z,100.00
2023-09-30T07:51:32.294Z,100.00
2023-09-30T07:54:07.497Z,100.00
2023-09-30T07:56:47.581Z,100.00
2023-09-30T07:59:14.402Z,100.00
2023-09-30T08:01:41.197Z,100.00
2023-09-30T08:04:08.049Z,100.00
2023-09-30T08:06:34.815Z,100.00
2023-09-30T08:09:03.910Z,100.00
2023-09-30T08:11:30.722Z,100.00
2023-09-30T08:13:59.488Z,100.00
2023-09-30T08:16:26.336Z,100.00
2023-09-30T08:18:53.227Z,100.00
2023-09-30T08:21:20.192Z,100.00
2023-09-30T08:23:58.693Z,100.00
2023-09-30T08:26:25.402Z,100.00
2023-09-30T08:28:52.146Z,100.00
2023-09-30T08:31:20.387Z,100.00
2023-09-30T08:33:47.203Z,100.00
2023-09-30T08:36:14.187Z,100.00
2023-09-30T08:38:42.379Z,100.00
2023-09-30T08:41:09.298Z,100.00
2023-09-30T08:43:39.240Z,100.00
2023-09-30T08:46:06.792Z,100.00
2023-09-30T08:48:35.723Z,100.00
2023-09-30T08:51:03.435Z,100.00
2023-09-30T08:53:30.885Z,100.00
2023-09-30T08:55:58.752Z,100.00
2023-09-30T08:58:28.050Z,100.00
2023-09-30T09:00:55.138Z,96.83
2023-09-30T09:03:22.013Z,100.00
2023-09-30T09:05:56.067Z,100.00
2023-09-30T09:08:23.025Z,73.91
2023-09-30T09:10:55.746Z,86.35
2023-09-30T09:13:22.504Z,72.55
2023-09-30T09:15:49.439Z,70.08
2023-09-30T09:18:33.325Z,93.16
2023-09-30T09:21:12.408Z,78.21
2023-09-30T09:23:43.776Z,65.67
2023-09-30T09:26:11.746Z,67.56
2023-09-30T09:28:39.280Z,69.95
2023-09-30T09:31:21.481Z,79.18
2023-09-30T09:33:48.343Z,65.61
2023-09-30T09:36:16.790Z,65.14
2023-09-30T09:38:48.048Z,67.53
2023-09-30T09:41:14.990Z,58.71
2023-09-30T09:43:42.547Z,57.80
2023-09-30T09:46:09.718Z,58.20
2023-09-30T09:48:37.353Z,58.72
2023-09-30T09:51:05.457Z,55.93
2023-09-30T09:53:35.986Z,58.12
2023-09-30T09:56:04.041Z,52.15
2023-09-30T09:58:34.434Z,58.96
2023-09-30T10:01:02.329Z,67.55
2023-09-30T10:03:29.432Z,84.22
2023-09-30T10:05:56.779Z,97.04
2023-09-30T10:08:32.842Z,100.00
2023-09-30T10:11:02.672Z,98.76
2023-09-30T10:13:51.396Z,100.00
2023-09-30T10:16:48.096Z,100.00
2023-09-30T10:19:16.397Z,87.74
2023-09-30T10:22:23.931Z,87.48
2023-09-30T10:24:51.922Z,60.50
2023-09-30T10:27:36.325Z,65.77
2023-09-30T10:30:11.178Z,71.65
2023-09-30T10:33:17.040Z,71.77
2023-09-30T10:35:48.994Z,63.22
2023-09-30T10:38:40.569Z,71.29
2023-09-30T10:41:10.464Z,56.20
2023-09-30T10:43:40.064Z,50.44
2023-09-30T10:46:33.527Z,47.73
2023-09-30T10:49:16.294Z,45.90
2023-09-30T10:51:43.514Z,44.05
2023-09-30T10:54:13.460Z,42.62
2023-09-30T10:56:40.211Z,40.27
2023-09-30T10:59:08.374Z,41.69
2023-09-30T11:01:36.171Z,40.93
2023-09-30T11:04:05.033Z,41.02
2023-09-30T11:06:32.485Z,42.29
2023-09-30T11:09:01.241Z,42.08
2023-09-30T11:11:38.632Z,41.98
2023-09-30T11:14:19.371Z,43.28
2023-09-30T11:16:46.629Z,39.79
2023-09-30T11:19:13.752Z,44.17
2023-09-30T11:21:40.958Z,39.60
2023-09-30T11:24:09.088Z,42.46
2023-09-30T11:26:38.443Z,43.08
2023-09-30T11:29:07.287Z,46.39
2023-09-30T11:31:38.481Z,45.05
2023-09-30T11:34:05.529Z,40.26
2023-09-30T11:36:32.395Z,42.23
2023-09-30T11:39:01.275Z,40.99
2023-09-30T11:41:34.751Z,38.32
2023-09-30T11:44:06.993Z,39.63
2023-09-30T11:46:48.823Z,39.60
2023-09-30T11:49:25.816Z,39.28
2023-09-30T11:51:52.713Z,35.19
2023-09-30T11:54:19.767Z,36.52
2023-09-30T11:56:46.451Z,39.69
2023-09-30T11:59:13.168Z,41.12
2023-09-30T12:01:41.274Z,45.66
2023-09-30T12:04:08.284Z,44.44
2023-09-30T12:06:35.105Z,48.89
2023-09-30T12:09:01.906Z,61.54
2023-09-30T12:11:28.687Z,73.36
2023-09-30T12:13:55.405Z,100.00
2023-09-30T12:16:22.178Z,89.12
2023-09-30T12:18:50.363Z,89.80
2023-09-30T12:21:17.092Z,71.13
2023-09-30T12:23:43.808Z,82.51
2023-09-30T12:26:14.362Z,63.19
2023-09-30T12:28:42.734Z,62.90
2023-09-30T12:31:09.461Z,53.96
2023-09-30T12:33:36.320Z,65.49
2023-09-30T12:36:05.093Z,56.28
2023-09-30T12:38:31.865Z,54.77
2023-09-30T12:40:58.770Z,57.57
2023-09-30T12:43:25.628Z,49.17
2023-09-30T12:45:52.409Z,44.71
2023-09-30T12:48:19.221Z,41.66
2023-09-30T12:50:46.047Z,44.86
2023-09-30T12:53:14.920Z,48.19
2023-09-30T12:55:42.113Z,50.93
2023-09-30T12:58:08.959Z,50.06
2023-09-30T13:00:35.917Z,48.49
2023-09-30T13:03:03.109Z,55.33
2023-09-30T13:05:30.236Z,66.50
2023-09-30T13:07:57.169Z,91.85
2023-09-30T13:10:25.724Z,87.17
2023-09-30T13:12:52.954Z,88.58
2023-09-30T13:15:20.229Z,100.00
2023-09-30T13:17:47.022Z,78.59
2023-09-30T13:20:13.920Z,84.20
2023-09-30T13:22:40.671Z,81.14
2023-09-30T13:25:08.693Z,95.34
2023-09-30T13:27:37.015Z,84.44
2023-09-30T13:30:04.494Z,81.82
2023-09-30T13:32:31.299Z,90.56
2023-09-30T13:34:58.350Z,90.42
2023-09-30T13:37:25.043Z,91.42
2023-09-30T13:39:51.775Z,96.09
2023-09-30T13:42:18.540Z,100.00
2023-09-30T13:44:46.716Z,100.00
2023-09-30T13:47:16.187Z,100.00
2023-09-30T13:49:43.092Z,100.00
2023-09-30T13:52:09.891Z,98.69
2023-09-30T13:54:36.840Z,100.00
2023-09-30T13:57:03.925Z,100.00
2023-09-30T13:59:30.697Z,100.00
2023-09-30T14:01:59.021Z,100.00
2023-09-30T14:04:25.704Z,100.00
2023-09-30T14:06:52.495Z,100.00
2023-09-30T14:09:29.638Z,100.00
2023-09-30T14:12:02.594Z,100.00
2023-09-30T14:14:29.304Z,100.00
2023-09-30T14:16:56.056Z,100.00
2023-09-30T14:19:24.185Z,100.00
2023-09-30T14:21:51.001Z,98.71
2023-09-30T14:24:17.817Z,89.14
2023-09-30T14:26:44.848Z,90.84
2023-09-30T14:29:11.742Z,91.87
2023-09-30T14:31:38.688Z,72.44
2023-09-30T14:34:05.490Z,80.58
2023-09-30T14:36:33.687Z,79.02
2023-09-30T14:39:13.981Z,90.03
2023-09-30T14:41:41.956Z,100.00
2023-09-30T14:44:09.292Z,96.42
2023-09-30T14:46:36.195Z,100.00
2023-09-30T14:49:03.194Z,100.00
2023-09-30T14:51:32.772Z,100.00
2023-09-30T14:53:59.538Z,100.00
2023-09-30T14:56:26.678Z,100.00
2023-09-30T14:58:53.496Z,100.00
2023-09-30T15:01:20.269Z,100.00
2023-09-30T15:03:47.141Z,100.00
2023-09-30T15:06:14.015Z,100.00
2023-09-30T15:08:42.171Z,100.00
2023-09-30T15:11:14.034Z,100.00
2023-09-30T15:13:40.868Z,100.00
2023-09-30T15:16:14.862Z,100.00
2023-09-30T15:18:41.749Z,100.00
2023-09-30T15:21:08.493Z,100.00
2023-09-30T15:23:35.344Z,100.00
2023-09-30T15:26:03.421Z,100.00
2023-09-30T15:28:30.072Z,100.00
2023-09-30T15:30:57.672Z,100.00
2023-09-30T15:33:24.591Z,100.00
2023-09-30T15:35:51.378Z,100.00
2023-09-30T15:38:18.831Z,100.00
2023-09-30T15:40:52.947Z,100.00
2023-09-30T15:43:21.195Z,100.00
2023-09-30T15:45:48.168Z,100.00
2023-09-30T15:48:15.076Z,100.00
2023-09-30T15:50:41.764Z,100.00
2023-09-30T15:53:08.575Z,100.00
2023-09-30T15:55:35.366Z,100.00
2023-09-30T15:58:02.357Z,100.00
2023-09-30T16:00:30.559Z,100.00
2023-09-30T16:02:57.555Z,100.00
2023-09-30T16:05:24.494Z,100.00
2023-09-30T16:07:51.354Z,100.00
2023-09-30T16:10:18.123Z,100.00
2023-09-30T16:12:45.027Z,100.00
2023-09-30T16:15:11.850Z,100.00
2023-09-30T16:17:40.171Z,100.00
2023-09-30T16:20:08.104Z,100.00
2023-09-30T16:22:34.955Z,100.00
2023-09-30T16:25:01.760Z,100.00
2023-09-30T16:27:28.810Z,100.00
2023-09-30T16:29:55.609Z,100.00
2023-09-30T16:32:22.330Z,100.00
2023-09-30T16:34:50.571Z,100.00
2023-09-30T16:37:17.475Z,100.00
2023-09-30T16:39:44.512Z,100.00
2023-09-30T16:42:11.250Z,100.00
2023-09-30T16:44:38.014Z,100.00
2023-09-30T16:47:04.749Z,100.00
2023-09-30T16:49:32.822Z,100.00
2023-09-30T16:52:01.168Z,100.00
2023-09-30T16:54:27.849Z,100.00
2023-09-30T16:56:54.528Z,100.00
2023-09-30T16:59:21.228Z,100.00
2023-09-30T17:01:48.032Z,100.00
2023-09-30T17:04:14.913Z,100.00
2023-09-30T17:06:41.822Z,100.00
2023-09-30T17:09:09.873Z,100.00
2023-09-30T17:11:36.698Z,100.00
2023-09-30T17:14:03.537Z,100.00
2023-09-30T17:16:30.414Z,100.00
2023-09-30T17:18:57.504Z,100.00
2023-09-30T17:21:24.396Z,100.00
2023-09-30T17:23:51.136Z,100.00
2023-09-30T17:26:19.419Z,100.00
2023-09-30T17:28:47.444Z,100.00
2023-09-30T17:31:15.887Z,100.00
2023-09-30T17:33:42.880Z,100.00
2023-09-30T17:36:09.921Z,100.00
2023-09-30T17:38:37.211Z,100.00
2023-09-30T17:41:05.189Z,100.00
2023-09-30T17:43:33.470Z,100.00
2023-09-30T17:46:07.688Z,100.00
2023-09-30T17:48:34.516Z,100.00
2023-09-30T17:51:01.397Z,100.00
2023-09-30T17:53:28.096Z,100.00
2023-09-30T17:55:55.154Z,100.00
2023-09-30T17:58:21.757Z,100.00
2023-09-30T18:00:50.908Z,100.00
2023-09-30T18:03:17.853Z,100.00
2023-09-30T18:05:44.683Z,100.00
2023-09-30T18:08:11.458Z,100.00
2023-09-30T18:10:38.153Z,100.00
2023-09-30T18:13:04.887Z,100.00
2023-09-30T18:15:31.809Z,100.00
2023-09-30T18:18:11.404Z,100.00
2023-09-30T18:20:39.937Z,100.00
2023-09-30T18:23:06.764Z,100.00
2023-09-30T18:25:33.511Z,100.00
2023-09-30T18:28:00.694Z,100.00
2023-09-30T18:30:27.550Z,100.00
2023-09-30T18:32:54.328Z,100.00
2023-09-30T18:35:22.494Z,100.00
2023-09-30T18:37:49.246Z,100.00
2023-09-30T18:40:15.993Z,100.00
2023-09-30T18:42:42.849Z,100.00
2023-09-30T18:45:10.403Z,100.00
2023-09-30T18:47:37.160Z,100.00
2023-09-30T18:50:04.358Z,100.00
2023-09-30T18:52:32.510Z,100.00
2023-09-30T18:54:59.268Z,100.00
2023-09-30T18:57:25.954Z,100.00
2023-09-30T18:59:52.712Z,100.00
2023-09-30T19:02:19.364Z,100.00
2023-09-30T19:04:46.091Z,100.00
2023-09-30T19:07:12.863Z,100.00
2023-09-30T19:09:41.046Z,100.00
2023-09-30T19:12:07.816Z,100.00
2023-09-30T19:14:34.435Z,100.00
2023-09-30T19:17:01.239Z,100.00
2023-09-30T19:19:28.167Z,100.00
2023-09-30T19:21:54.908Z,100.00
2023-09-30T19:24:21.547Z,100.00
2023-09-30T19:26:49.556Z,100.00
2023-09-30T19:29:16.216Z,100.00
2023-09-30T19:31:42.937Z,100.00
2023-09-30T19:34:09.829Z,100.00
2023-09-30T19:36:36.518Z,100.00
2023-09-30T19:39:03.290Z,100.00
2023-09-30T19:41:29.990Z,100.00
2023-09-30T19:43:58.279Z,100.00
2023-09-30T19:46:25.349Z,100.00
2023-09-30T19:48:52.101Z,100.00
2023-09-30T19:51:25.176Z,100.00
2023-09-30T19:53:51.916Z,100.00
2023-09-30T19:56:18.611Z,100.00
2023-09-30T19:58:45.916Z,100.00
2023-09-30T20:01:14.107Z,100.00
2023-09-30T20:03:41.093Z,100.00
2023-09-30T20:06:18.340Z,100.00
2023-09-30T20:08:44.994Z,100.00
2023-09-30T20:11:18.175Z,100.00
2023-09-30T20:13:44.893Z,100.00
2023-09-30T20:16:11.589Z,100.00
2023-09-30T20:18:39.691Z,100.00
2023-09-30T20:21:06.487Z,100.00
2023-09-30T20:23:33.152Z,100.00
2023-09-30T20:25:59.960Z,100.00
2023-09-30T20:28:26.598Z,100.00
2023-09-30T20:30:53.423Z,100.00
2023-09-30T20:33:20.219Z,100.00
2023-09-30T20:35:48.805Z,100.00
2023-09-30T20:38:15.457Z,100.00
2023-09-30T20:40:42.214Z,100.00
2023-09-30T20:43:08.965Z,100.00
2023-09-30T20:45:35.881Z,100.00
2023-09-30T20:48:03.455Z,100.00
2023-09-30T20:50:30.234Z,100.00
2023-09-30T20:52:59.782Z,100.00
2023-09-30T20:55:26.846Z,100.00
2023-09-30T20:57:53.628Z,100.00
2023-09-30T21:00:20.506Z,100.00
2023-09-30T21:02:47.444Z,100.00
2023-09-30T21:05:14.652Z,100.00
2023-09-30T21:07:41.362Z,100.00
2023-09-30T21:10:10.405Z,100.00
2023-09-30T21:12:37.098Z,100.00
2023-09-30T21:15:06.390Z,100.00
2023-09-30T21:17:33.465Z,100.00
2023-09-30T21:20:00.222Z,100.00
2023-09-30T21:22:26.920Z,100.00
2023-09-30T21:24:53.624Z,100.00
2023-09-30T21:27:21.809Z,100.00
2023-09-30T21:29:48.428Z,100.00
2023-09-30T21:32:15.566Z,100.00
2023-09-30T21:34:42.314Z,100.00
2023-09-30T21:37:09.159Z,100.00
2023-09-30T21:39:35.993Z,100.00
2023-09-30T21:42:02.796Z,100.00
2023-09-30T21:44:30.908Z,100.00
2023-09-30T21:46:57.686Z,100.00
2023-09-30T21:49:24.326Z,100.00
2023-09-30T21:51:51.118Z,100.00
2023-09-30T21:54:17.850Z,100.00
2023-09-30T21:56:44.596Z,100.00
2023-09-30T21:59:11.279Z,100.00
2023-09-30T22:01:39.584Z,100.00
2023-09-30T22:04:06.578Z,100.00
2023-09-30T22:06:33.439Z,100.00
2023-09-30T22:09:00.421Z,100.00
2023-09-30T22:11:27.316Z,100.00
2023-09-30T22:13:54.064Z,100.00
2023-09-30T22:16:20.952Z,100.00
2023-09-30T22:18:49.152Z,100.00
2023-09-30T22:21:16.098Z,100.00
2023-09-30T22:23:42.762Z,100.00
2023-09-30T22:26:09.456Z,100.00
2023-09-30T22:28:36.084Z,100.00
2023-09-30T22:31:02.869Z,100.00
2023-09-30T22:33:29.743Z,100.00
2023-09-30T22:35:57.857Z,100.00
2023-09-30T22:38:24.533Z,100.00
2023-09-30T22:40:51.143Z,100.00
2023-09-30T22:43:17.900Z,100.00
2023-09-30T22:45:44.694Z,100.00
2023-09-30T22:48:11.549Z,100.00
2023-09-30T22:50:38.275Z,100.00
2023-09-30T22:53:07.253Z,100.00
2023-09-30T22:55:34.208Z,100.00
2023-09-30T22:58:01.642Z,100.00
2023-09-30T23:00:29.009Z,100.00
2023-09-30T23:02:56.325Z,100.00
2023-09-30T23:05:23.637Z,100.00
2023-09-30T23:07:50.331Z,100.00
2023-09-30T23:10:18.579Z,100.00
2023-09-30T23:12:45.744Z,100.00
2023-09-30T23:15:15.159Z,100.00
2023-09-30T23:17:45.057Z,100.00
2023-09-30T23:20:13.704Z,100.00
2023-09-30T23:22:41.100Z,100.00
2023-09-30T23:25:08.796Z,100.00
2023-09-30T23:27:36.895Z,100.00
2023-09-30T23:30:04.179Z,100.00
2023-09-30T23:32:30.808Z,100.00
2023-09-30T23:34:57.535Z,100.00
2023-09-30T23:37:24.248Z,100.00
2023-09-30T23:39:50.919Z,100.00
2023-09-30T23:42:17.706Z,100.00
2023-09-30T23:44:45.846Z,100.00
2023-09-30T23:47:12.808Z,100.00
2023-09-30T23:49:39.718Z,100.00
2023-09-30T23:52:06.696Z,100.00
2023-09-30T23:54:33.395Z,100.00
2023-09-30T23:57:00.170Z,100.00
2023-09-30T23:59:26.893Z,100.00
